KDWU

Details ICAO KDWU
Name ASHLAND RGNL
Region United States
Timezone America/New_York (UTC-4.0)
Plans Departing 0
Arriving 5
Stats Elevation 546 ft / 166 m (AMSL)
Location 38.554547° -82.738043°
Runways 1
Magnetic Variation 7.063° W
Sunrise 2018-05-22 10:15:16 UTC / 2018-05-22 06:15:16 Local
Sunset 2018-05-23 00:42:52 UTC / 2018-05-22 20:42:52 Local
Advertisement - Login to hide

Runways

ID Width Length Bearing (true) Bearing (mag) Surface Threshold Offset Overrun Length
10 98 ft / 30 m 5,590 ft / 1,704 m 98.20° 105.26° Asphalt 0 ft / 0 m 0 ft / 0 m
28 98 ft / 30 m 5,590 ft / 1,704 m 278.21° 285.27° Asphalt 0 ft / 0 m 0 ft / 0 m

Approach Navaids

Runway Type Ident Frequency Range Bearing (true) Bearing (mag) Slope Elevation
10 Localiser IAJY 108.90 MHz 18 nm / 33 km 98.20° 105.26° - 546 ft / 166 m (AMSL)

Map

Weather


0- 5 10 15 20 25 30 35+ Temperature / ° C

Clouds and Precipitation
Forecast for 2018-05-23 00:00 UTC. Updated 3 hours ago

Ground ~20,000 ft ~40,000 ft Winds

METAR

KDWU 230056Z AUTO 00000KT 10SM CLR 23/20 A2997 RMK AO2 SLP144 T02330200

TAF

Not found

Frequencies

Recorded 132.42 MHz AWOS 3
Clearance 121.70 MHz CLNC DEL
Unicom 122.80 MHz CTAF/UNICOM
Approach 128.40 MHz HUNTINGTON APP/DEP
Warning: Do not use this data for real-world aviation or navigation. No guarantee of current accuracy is given.